Aviation Digital Data Service (ADDS)

Output produced by TAFs form (1017 UTC 05 March 2015)
found at http://aviationweather.gov/adds/tafs/
 
KGJT 050520Z 0506/0606 10005KT P6SM SKC 
     FM051500 14005KT P6SM SCT250 
     FM052000 29005KT P6SM SCT250 
     FM060200 05005KT P6SM SCT250